Time;durP1;ratioP1;P1;durP2;ratioP2;P2;SDS_P1;SDS_P2;PMS_P1;PMS_P2;Temp;Humidity;BMP_temperature;BMP_pressure;BME280_temperature;BME280_humidity;BME280_pressure;Samples;Min_cycle;Max_cycle;Signal;HPM_P1;HPM_P2
2023/07/25 00:01:09;;;;;;;5.75;2.40;;;;;;;12.55;85.88;100873.34;6058386;19;20454;-73
2023/07/25 00:03:18;;;;;;;6.88;2.63;;;;;;;12.58;85.87;100874.97;6064652;19;20633;-74
2023/07/25 00:05:23;;;;;;;7.25;2.40;;;;;;;12.49;86.62;100863.09;6060920;19;20014;-74
2023/07/25 00:07:28;;;;;;;4.05;2.83;;;;;;;12.46;87.06;100872.00;6070136;19;20514;-74
2023/07/25 00:09:34;;;;;;;12.68;3.85;;;;;;;12.49;87.05;100871.84;6067073;19;20445;-74
2023/07/25 00:11:40;;;;;;;6.88;2.85;;;;;;;12.49;87.58;100869.22;6073209;19;20448;-74
2023/07/25 00:13:45;;;;;;;5.07;2.42;;;;;;;12.43;87.53;100868.66;6066052;19;20063;-74
2023/07/25 00:15:49;;;;;;;4.45;2.45;;;;;;;12.40;88.31;100871.41;6065600;19;20491;-72
2023/07/25 00:17:55;;;;;;;8.15;2.97;;;;;;;12.37;87.12;100880.31;6069131;19;20010;-72
2023/07/25 00:20:03;;;;;;;8.45;2.90;;;;;;;12.38;87.72;100875.94;6060878;19;20577;-73
2023/07/25 00:22:13;;;;;;;4.32;1.92;;;;;;;12.39;87.48;100872.34;6061235;19;20010;-73
2023/07/25 00:24:18;;;;;;;7.85;2.60;;;;;;;12.41;87.97;100863.47;6073952;19;20703;-73
2023/07/25 00:26:24;;;;;;;8.80;2.85;;;;;;;12.29;88.02;100856.97;6065542;19;20238;-73
2023/07/25 00:28:30;;;;;;;5.25;2.67;;;;;;;12.29;88.74;100859.59;6062889;19;20002;-73
2023/07/25 00:30:35;;;;;;;4.88;2.67;;;;;;;12.27;88.17;100858.00;6066998;19;20517;-73
2023/07/25 00:32:41;;;;;;;6.63;2.58;;;;;;;12.25;87.79;100851.94;6069058;19;20036;-73
2023/07/25 00:34:46;;;;;;;8.77;3.03;;;;;;;12.23;87.90;100853.78;6073276;19;20497;-72
2023/07/25 00:36:56;;;;;;;4.63;2.30;;;;;;;12.21;88.09;100853.00;6065353;19;20089;-72
2023/07/25 00:39:01;;;;;;;9.00;3.17;;;;;;;12.17;88.67;100843.56;6063390;19;20682;-72
2023/07/25 00:41:06;;;;;;;7.00;2.75;;;;;;;12.16;89.06;100847.09;6059878;19;20078;-73
2023/07/25 00:43:13;;;;;;;9.48;3.13;;;;;;;12.11;88.03;100849.09;6058669;19;20252;-74
2023/07/25 00:45:19;;;;;;;5.93;3.13;;;;;;;12.08;88.35;100847.44;6056716;19;20535;-74
2023/07/25 00:47:25;;;;;;;6.18;3.33;;;;;;;12.11;89.30;100855.19;6064360;19;20515;-74
2023/07/25 00:49:35;;;;;;;5.60;2.88;;;;;;;12.01;88.80;100846.91;6056359;19;20612;-74
2023/07/25 00:51:42;;;;;;;8.88;3.08;;;;;;;12.01;88.88;100849.53;6066705;19;20457;-72
2023/07/25 00:53:51;;;;;;;5.20;2.90;;;;;;;11.97;88.44;100847.94;6050549;19;20705;-74
2023/07/25 00:55:56;;;;;;;6.47;3.13;;;;;;;11.96;88.24;100850.66;6064546;19;20116;-72
2023/07/25 00:58:03;;;;;;;11.80;3.50;;;;;;;11.98;88.78;100854.94;6056617;19;20125;-72
2023/07/25 01:00:07;;;;;;;6.88;3.20;;;;;;;11.99;89.44;100851.38;6058323;19;20007;-72
2023/07/25 01:02:14;;;;;;;7.10;3.03;;;;;;;11.96;88.77;100851.50;6064175;19;20021;-75
2023/07/25 01:04:19;;;;;;;5.43;2.50;;;;;;;11.97;89.50;100855.00;6070320;19;20017;-72
2023/07/25 01:06:25;;;;;;;4.75;2.85;;;;;;;11.92;90.57;100855.19;6074135;19;20011;-74
2023/07/25 01:08:31;;;;;;;5.22;3.00;;;;;;;11.88;90.55;100851.03;6075385;19;20283;-74
2023/07/25 01:10:40;;;;;;;7.63;3.45;;;;;;;11.80;91.37;100853.97;6068732;19;20062;-74
2023/07/25 01:12:48;;;;;;;7.40;2.92;;;;;;;11.81;90.70;100847.75;6068684;19;20109;-74
2023/07/25 01:14:54;;;;;;;5.15;2.75;;;;;;;11.81;90.50;100853.03;6059757;19;20490;-72
2023/07/25 01:17:10;;;;;;;7.65;2.97;;;;;;;11.77;91.89;100846.22;6076659;19;20034;-72
2023/07/25 01:19:19;;;;;;;7.03;3.20;;;;;;;11.78;91.35;100847.91;6068845;19;20283;-72
2023/07/25 01:21:24;;;;;;;6.03;2.97;;;;;;;11.78;90.93;100841.78;6057245;19;20038;-72
2023/07/25 01:23:33;;;;;;;5.47;2.92;;;;;;;11.77;91.27;100838.31;6065764;19;20059;-73
2023/07/25 01:25:43;;;;;;;5.93;2.70;;;;;;;11.73;91.44;100849.88;6064499;19;20535;-74
2023/07/25 01:27:48;;;;;;;7.60;2.97;;;;;;;11.70;91.52;100834.25;6068015;19;20506;-74
2023/07/25 01:29:59;;;;;;;6.82;3.15;;;;;;;11.73;91.66;100833.25;6060763;19;20014;-72
2023/07/25 01:32:07;;;;;;;7.40;2.65;;;;;;;11.75;91.43;100832.25;6062752;19;20511;-75
2023/07/25 01:34:14;;;;;;;6.30;2.60;;;;;;;11.81;91.01;100834.59;6069566;19;20260;-73
2023/07/25 01:36:19;;;;;;;10.02;2.92;;;;;;;11.78;90.97;100837.38;6064302;19;20136;-73
2023/07/25 01:38:27;;;;;;;5.20;2.70;;;;;;;11.75;90.81;100836.66;6061788;19;20276;-73
2023/07/25 01:40:32;;;;;;;4.13;2.58;;;;;;;11.74;92.04;100838.47;6068790;19;20011;-72
2023/07/25 01:42:42;;;;;;;5.15;2.80;;;;;;;11.78;91.23;100842.66;6076487;19;20382;-74
2023/07/25 01:44:47;;;;;;;5.97;2.53;;;;;;;11.77;91.37;100842.69;6064646;19;20035;-73
2023/07/25 01:46:53;;;;;;;6.22;3.13;;;;;;;11.76;91.71;100839.22;6068472;19;20032;-74
2023/07/25 01:48:55;;;;;;;5.55;2.80;;;;;;;11.80;92.34;100840.81;6067175;19;20527;-72
2023/07/25 01:51:02;;;;;;;9.95;3.20;;;;;;;11.82;91.92;100838.06;6062187;19;20024;-73
2023/07/25 01:53:08;;;;;;;8.15;3.30;;;;;;;11.88;91.69;100839.63;6058909;19;20409;-73
2023/07/25 01:55:14;;;;;;;8.05;3.10;;;;;;;11.92;92.04;100833.28;6069179;19;20090;-73
2023/07/25 01:57:20;;;;;;;7.47;2.97;;;;;;;11.89;92.08;100829.00;6060177;19;20014;-72
2023/07/25 01:59:33;;;;;;;6.22;2.83;;;;;;;11.88;91.88;100827.31;6068675;19;20070;-72
2023/07/25 02:01:38;;;;;;;6.82;3.10;;;;;;;11.88;92.78;100831.75;6075027;19;20397;-72
2023/07/25 02:03:44;;;;;;;6.47;3.38;;;;;;;11.92;92.53;100830.66;6066400;19;20014;-72
2023/07/25 02:05:50;;;;;;;4.40;2.88;;;;;;;11.95;92.39;100830.50;6062888;19;20020;-73
2023/07/25 02:07:55;;;;;;;8.77;3.40;;;;;;;11.95;91.95;100830.50;6064060;19;20680;-71
2023/07/25 02:10:02;;;;;;;9.15;2.65;;;;;;;11.91;92.95;100828.97;6060795;19;20302;-73
2023/07/25 02:12:13;;;;;;;6.65;3.13;;;;;;;11.86;93.31;100830.00;6066155;19;20455;-74
2023/07/25 02:14:19;;;;;;;5.78;2.67;;;;;;;11.93;92.85;100827.09;6066002;19;20044;-74
2023/07/25 02:16:27;;;;;;;7.68;2.90;;;;;;;12.03;93.29;100834.50;6059679;19;20226;-73
2023/07/25 02:18:33;;;;;;;8.02;3.42;;;;;;;12.05;92.97;100827.38;6064760;19;20202;-74
2023/07/25 02:20:40;;;;;;;10.32;3.10;;;;;;;12.11;92.95;100828.84;6068561;19;20261;-74
2023/07/25 02:22:45;;;;;;;11.90;3.83;;;;;;;12.17;92.49;100827.75;6061893;19;20010;-74
2023/07/25 02:24:51;;;;;;;6.85;2.83;;;;;;;12.20;92.36;100822.31;6074241;19;20002;-72
2023/07/25 02:26:57;;;;;;;11.30;3.33;;;;;;;12.26;92.28;100830.78;6062513;19;20264;-74
2023/07/25 02:29:02;;;;;;;7.03;3.22;;;;;;;12.28;91.90;100828.94;6061083;19;20680;-74
2023/07/25 02:31:05;;;;;;;8.88;3.08;;;;;;;12.31;91.91;100830.56;6056404;19;20268;-72
2023/07/25 02:33:14;;;;;;;8.45;3.20;;;;;;;12.38;91.78;100836.41;6066742;19;20469;-72
2023/07/25 02:35:19;;;;;;;11.43;4.00;;;;;;;12.38;91.46;100820.59;6063153;19;20471;-72
2023/07/25 02:37:25;;;;;;;12.68;3.88;;;;;;;12.35;91.53;100820.72;6066844;19;20014;-72
2023/07/25 02:39:33;;;;;;;9.50;3.35;;;;;;;12.36;91.58;100819.81;6064249;19;20517;-73
2023/07/25 02:41:38;;;;;;;5.95;3.53;;;;;;;12.48;91.51;100822.72;6066016;19;20605;-73
2023/07/25 02:43:43;;;;;;;9.13;3.88;;;;;;;12.43;91.34;100816.81;6066273;19;20015;-73
2023/07/25 02:45:49;;;;;;;10.63;3.35;;;;;;;12.44;91.70;100831.69;6067112;19;20279;-74
2023/07/25 02:47:52;;;;;;;6.70;3.00;;;;;;;12.52;91.13;100829.53;6062170;19;20011;-74
2023/07/25 02:50:02;;;;;;;7.80;3.20;;;;;;;12.46;91.84;100834.25;6059480;19;20499;-74
2023/07/25 02:52:12;;;;;;;8.15;3.08;;;;;;;12.57;91.60;100831.09;6064312;19;20457;-72
2023/07/25 02:54:17;;;;;;;7.57;3.63;;;;;;;12.64;91.59;100827.22;6087316;19;20219;-72
2023/07/25 02:56:25;;;;;;;8.35;3.30;;;;;;;12.68;91.06;100824.34;6061284;19;20260;-73
2023/07/25 02:58:34;;;;;;;10.85;3.10;;;;;;;12.60;90.97;100830.94;6062552;19;20006;-72
2023/07/25 03:00:41;;;;;;;8.15;3.10;;;;;;;12.61;91.11;100833.50;6067666;19;20538;-72
2023/07/25 03:02:43;;;;;;;4.47;2.83;;;;;;;12.73;91.90;100830.25;6057457;19;20507;-72
2023/07/25 03:04:49;;;;;;;;;;;;;;;12.72;91.72;100830.34;6068394;19;20242;-71
2023/07/25 03:06:58;;;;;;;8.85;3.40;;;;;;;12.72;91.48;100831.19;6057501;19;20863;-74
2023/07/25 03:09:03;;;;;;;6.00;2.75;;;;;;;12.78;92.51;100826.53;6062883;19;20287;-75
2023/07/25 03:11:09;;;;;;;5.80;2.90;;;;;;;12.82;93.25;100820.16;6059524;19;20490;-72
2023/07/25 03:13:14;;;;;;;7.07;2.88;;;;;;;12.82;92.56;100821.03;6063971;19;20045;-72
2023/07/25 03:15:20;;;;;;;7.55;3.05;;;;;;;12.86;92.29;100816.47;6054925;19;20082;-72
2023/07/25 03:17:25;;;;;;;10.38;3.33;;;;;;;12.93;92.17;100816.06;6056494;19;20010;-72
2023/07/25 03:19:31;;;;;;;14.43;3.33;;;;;;;12.99;91.94;100820.19;6059345;19;20595;-72
2023/07/25 03:21:41;;;;;;;6.90;2.90;;;;;;;12.99;91.53;100825.47;6065117;19;20296;-73
2023/07/25 03:23:49;;;;;;;12.00;3.05;;;;;;;12.99;92.01;100816.69;6065072;19;20245;-72
2023/07/25 03:25:54;;;;;;;6.75;2.72;;;;;;;13.05;92.35;100816.38;6068475;19;20006;-73
2023/07/25 03:28:02;;;;;;;7.57;3.03;;;;;;;13.12;92.43;100817.78;6063790;19;20267;-74
2023/07/25 03:30:11;;;;;;;7.45;3.22;;;;;;;13.10;92.35;100819.63;6061850;19;20264;-74
2023/07/25 03:32:14;;;;;;;9.85;3.50;;;;;;;13.03;93.15;100818.22;6061692;19;20749;-72
2023/07/25 03:34:19;;;;;;;5.07;2.58;;;;;;;13.00;93.28;100821.88;6062178;19;20109;-75
2023/07/25 03:36:25;;;;;;;8.27;2.83;;;;;;;13.14;93.61;100819.41;6060633;19;20801;-72
2023/07/25 03:38:33;;;;;;;6.85;3.22;;;;;;;13.11;93.92;100816.94;6055915;19;20340;-73
2023/07/25 03:40:41;;;;;;;8.13;2.72;;;;;;;13.10;94.45;100822.28;6056479;19;20376;-74
2023/07/25 03:42:46;;;;;;;13.05;3.85;;;;;;;13.09;94.42;100818.78;6064587;19;20014;-72
2023/07/25 03:44:53;;;;;;;7.07;2.97;;;;;;;13.17;94.23;100815.75;6057237;19;20252;-72
2023/07/25 03:46:59;;;;;;;8.23;3.15;;;;;;;13.27;94.48;100821.41;6053674;19;20049;-72
2023/07/25 03:49:04;;;;;;;5.40;2.97;;;;;;;13.32;94.17;100820.28;6071808;19;20523;-72
2023/07/25 03:51:12;;;;;;;9.48;3.05;;;;;;;13.34;94.63;100828.94;6063132;19;20122;-72
2023/07/25 03:53:17;;;;;;;7.78;3.67;;;;;;;13.33;94.50;100834.31;6057694;19;20777;-72
2023/07/25 03:55:23;;;;;;;7.57;2.90;;;;;;;13.33;94.63;100821.13;6050792;19;20014;-72
2023/07/25 03:57:33;;;;;;;9.38;3.28;;;;;;;13.32;95.03;100824.69;6062049;19;20010;-72
2023/07/25 03:59:39;;;;;;;8.57;2.88;;;;;;;13.35;95.69;100824.53;6060022;19;20022;-73
2023/07/25 04:01:44;;;;;;;8.23;2.95;;;;;;;13.37;94.68;100825.28;6060963;19;20011;-73
2023/07/25 04:03:49;;;;;;;9.25;3.30;;;;;;;13.38;95.41;100834.94;6060476;19;20271;-74
2023/07/25 04:05:55;;;;;;;7.53;3.08;;;;;;;13.44;95.55;100825.84;6061793;19;20144;-74
2023/07/25 04:08:03;;;;;;;11.57;3.42;;;;;;;13.45;94.72;100825.72;6059765;19;20192;-73
2023/07/25 04:10:12;;;;;;;5.65;3.05;;;;;;;13.48;94.69;100824.72;6062028;19;20085;-72
2023/07/25 04:12:15;;;;;;;5.22;2.85;;;;;;;13.51;94.67;100837.78;6049647;19;20007;-72
2023/07/25 04:14:22;;;;;;;7.93;2.90;;;;;;;13.55;95.27;100826.97;6042981;19;20483;-72
2023/07/25 04:16:28;;;;;;;5.90;2.72;;;;;;;13.57;94.65;100834.81;6059705;19;20028;-72
2023/07/25 04:18:33;;;;;;;6.05;2.50;;;;;;;13.56;94.08;100841.88;6053685;19;20017;-72
2023/07/25 04:20:38;;;;;;;8.05;2.88;;;;;;;13.58;94.46;100834.72;6076287;19;20043;-72
2023/07/25 04:22:45;;;;;;;6.53;3.25;;;;;;;13.52;94.17;100837.69;6057759;19;20216;-73
2023/07/25 04:24:51;;;;;;;7.25;2.63;;;;;;;13.56;94.73;100833.97;6061625;19;20017;-73
2023/07/25 04:26:56;;;;;;;7.82;2.45;;;;;;;13.65;94.80;100834.41;6055972;19;20018;-73
2023/07/25 04:29:03;;;;;;;6.70;2.97;;;;;;;13.72;94.50;100835.78;6051660;19;20471;-72
2023/07/25 04:31:09;;;;;;;7.28;3.33;;;;;;;13.72;93.47;100841.06;6058651;19;20236;-73
2023/07/25 04:33:16;;;;;;;9.80;2.90;;;;;;;13.74;93.62;100833.91;6056617;19;20889;-73
2023/07/25 04:35:22;;;;;;;7.82;2.95;;;;;;;13.74;94.06;100839.19;6063104;19;20010;-72
2023/07/25 04:37:29;;;;;;;7.07;2.75;;;;;;;13.79;92.98;100837.16;6068674;19;20384;-73
2023/07/25 04:39:35;;;;;;;9.50;3.30;;;;;;;13.80;92.78;100838.88;6059850;19;20291;-73
2023/07/25 04:41:40;;;;;;;7.00;3.05;;;;;;;13.85;91.36;100839.47;6062252;19;20138;-73
2023/07/25 04:43:48;;;;;;;8.38;2.75;;;;;;;13.91;90.82;100833.84;6059945;19;20310;-72
2023/07/25 04:45:53;;;;;;;6.50;2.90;;;;;;;13.91;91.32;100839.13;6047386;19;20027;-73
2023/07/25 04:48:02;;;;;;;7.18;3.13;;;;;;;13.95;89.82;100843.28;6071900;19;20714;-72
2023/07/25 04:50:08;;;;;;;7.05;3.42;;;;;;;13.93;88.92;100839.03;6060421;19;20124;-72
2023/07/25 04:52:13;;;;;;;5.25;2.53;;;;;;;13.96;88.01;100842.38;6065793;19;20018;-72
2023/07/25 04:54:18;;;;;;;6.82;2.75;;;;;;;13.95;87.26;100845.94;6068171;19;20523;-73
2023/07/25 04:56:24;;;;;;;10.85;2.63;;;;;;;14.01;86.72;100845.63;6066944;19;20644;-73
2023/07/25 04:58:29;;;;;;;5.15;2.50;;;;;;;14.04;85.46;100841.97;6063961;19;20010;-74
2023/07/25 05:00:34;;;;;;;5.50;2.75;;;;;;;14.07;84.23;100846.22;6065738;19;20470;-72
2023/07/25 05:02:43;;;;;;;7.40;2.70;;;;;;;14.07;84.16;100844.44;6066890;19;20018;-72
2023/07/25 05:04:52;;;;;;;9.68;2.28;;;;;;;14.12;82.81;100842.38;6066943;19;20010;-73
2023/07/25 05:07:00;;;;;;;4.78;2.15;;;;;;;14.10;82.73;100838.13;6061879;19;20019;-74
2023/07/25 05:09:05;;;;;;;8.82;2.13;;;;;;;14.14;82.98;100851.09;6065072;19;20513;-74
2023/07/25 05:11:11;;;;;;;4.68;2.35;;;;;;;14.18;82.49;100847.31;6075233;19;20567;-72
2023/07/25 05:13:14;;;;;;;6.25;2.33;;;;;;;14.22;82.14;100855.97;6066274;19;20478;-73
2023/07/25 05:15:19;;;;;;;6.20;2.53;;;;;;;14.27;81.78;100856.56;6051281;19;20529;-73
2023/07/25 05:17:25;;;;;;;6.60;2.45;;;;;;;14.29;81.00;100857.28;6061627;19;20263;-73
2023/07/25 05:19:33;;;;;;;6.15;2.35;;;;;;;14.30;80.74;100852.84;6066497;19;20365;-74
2023/07/25 05:21:41;;;;;;;5.60;2.40;;;;;;;14.35;80.18;100854.34;6079965;19;20014;-73
2023/07/25 05:23:47;;;;;;;3.85;1.92;;;;;;;14.44;79.65;100859.09;6067380;19;20596;-71
2023/07/25 05:25:52;;;;;;;6.60;2.50;;;;;;;14.70;79.20;100856.78;6061798;19;20034;-74
2023/07/25 05:28:00;;;;;;;8.07;2.65;;;;;;;14.92;77.82;100849.31;6061496;19;20003;-73
2023/07/25 05:30:06;;;;;;;5.22;2.20;;;;;;;14.86;77.08;100848.81;6057429;19;20006;-72
2023/07/25 05:32:13;;;;;;;6.82;1.98;;;;;;;15.04;75.93;100847.75;6066111;19;19999;-74
2023/07/25 05:34:19;;;;;;;4.45;2.42;;;;;;;15.07;75.01;100852.00;6063154;19;20422;-73
2023/07/25 05:36:24;;;;;;;4.57;1.80;;;;;;;14.90;75.83;100845.91;6061405;19;20287;-72
2023/07/25 05:38:32;;;;;;;6.18;1.98;;;;;;;15.07;75.47;100852.84;6058391;19;20695;-74
2023/07/25 05:40:43;;;;;;;10.25;2.28;;;;;;;15.07;74.79;100844.06;6038084;19;20309;-72
2023/07/25 05:42:49;;;;;;;6.05;2.08;;;;;;;14.85;75.68;100847.97;6054848;19;20009;-74
2023/07/25 05:44:55;;;;;;;6.65;2.35;;;;;;;14.95;75.70;100848.28;6058777;19;20577;-72
2023/07/25 05:47:05;;;;;;;4.75;1.88;;;;;;;15.09;75.00;100842.19;6055716;19;20014;-71
2023/07/25 05:49:10;;;;;;;4.45;2.00;;;;;;;14.92;74.68;100854.59;6058733;19;20007;-70
2023/07/25 05:51:18;;;;;;;5.75;2.00;;;;;;;14.91;74.82;100858.19;6056555;19;20105;-70
2023/07/25 05:53:29;;;;;;;6.10;2.00;;;;;;;15.09;74.48;100866.84;6047929;19;20465;-71
2023/07/25 05:55:37;;;;;;;7.72;2.22;;;;;;;15.13;73.28;100857.78;6059656;19;20534;-70
2023/07/25 05:57:44;;;;;;;5.13;1.90;;;;;;;14.98;73.12;100861.34;6060836;19;20115;-70
2023/07/25 05:59:49;;;;;;;4.90;2.70;;;;;;;15.47;72.54;100855.75;6059564;19;20042;-71
2023/07/25 06:01:55;;;;;;;4.97;1.80;;;;;;;15.75;71.26;100854.13;6054576;19;20559;-71
2023/07/25 06:04:03;;;;;;;5.20;1.77;;;;;;;16.27;70.97;100860.56;6047498;19;22297;-73
2023/07/25 06:06:08;;;;;;;3.60;1.80;;;;;;;16.24;68.83;100857.19;6057795;19;20058;-72
2023/07/25 06:08:14;;;;;;;3.83;1.83;;;;;;;16.57;68.96;100861.25;6066888;19;20587;-71
2023/07/25 06:10:19;;;;;;;8.75;2.40;;;;;;;16.66;67.57;100859.78;6059929;19;20403;-72
2023/07/25 06:12:30;;;;;;;6.32;1.77;;;;;;;16.61;67.00;100859.22;6062699;19;20040;-72
2023/07/25 06:14:35;;;;;;;1.85;1.33;;;;;;;16.72;66.22;100853.22;6069691;19;20442;-74
2023/07/25 06:16:40;;;;;;;5.25;2.05;;;;;;;17.02;66.97;100858.34;6065399;19;20011;-74
2023/07/25 06:18:50;;;;;;;2.90;1.95;;;;;;;16.84;65.75;100860.41;6061773;19;20101;-72
2023/07/25 06:20:55;;;;;;;3.90;1.92;;;;;;;17.26;65.29;100853.16;6058713;19;20285;-72
2023/07/25 06:23:02;;;;;;;4.50;1.60;;;;;;;17.19;64.90;100859.84;6065695;19;20230;-72
2023/07/25 06:25:14;;;;;;;6.50;1.88;;;;;;;16.51;65.13;100860.78;6060071;19;20283;-74
2023/07/25 06:27:19;;;;;;;6.40;2.10;;;;;;;16.84;64.29;100860.41;6068145;19;20428;-75
2023/07/25 06:29:28;;;;;;;3.47;1.60;;;;;;;16.85;64.02;100860.31;6069431;19;20264;-73
2023/07/25 06:31:36;;;;;;;4.57;1.70;;;;;;;16.87;64.17;100860.19;6058590;19;20021;-73
2023/07/25 06:33:43;;;;;;;4.85;1.73;;;;;;;17.00;63.06;100861.06;6066170;19;20026;-73
2023/07/25 06:35:49;;;;;;;3.78;1.60;;;;;;;17.47;63.19;100857.00;6057577;19;20082;-73
2023/07/25 06:37:52;;;;;;;3.88;1.88;;;;;;;17.86;61.49;100849.88;6053232;19;20290;-73
2023/07/25 06:39:59;;;;;;;;;;;;;;;17.92;61.24;100860.06;6049974;19;20022;-74
2023/07/25 06:42:04;;;;;;;3.35;1.58;;;;;;;18.68;60.52;100855.47;6059205;19;20245;-72
2023/07/25 06:44:11;;;;;;;4.25;1.48;;;;;;;18.29;59.16;100857.44;6039969;19;20517;-73
2023/07/25 06:46:24;;;;;;;6.28;2.00;;;;;;;17.53;61.50;100851.25;6050775;19;20659;-73
2023/07/25 06:48:30;;;;;;;6.18;2.35;;;;;;;17.66;60.53;100856.56;6050016;19;20220;-73
2023/07/25 06:50:33;;;;;;;5.75;1.70;;;;;;;17.47;60.62;100859.66;6051985;19;20014;-73
2023/07/25 06:52:38;;;;;;;3.33;1.40;;;;;;;17.10;59.63;100859.50;6073661;19;20411;-73
2023/07/25 06:54:44;;;;;;;1.50;1.23;;;;;;;17.61;60.46;100857.84;6058066;19;20378;-73
2023/07/25 06:56:50;;;;;;;3.10;1.52;;;;;;;17.12;59.94;100864.72;6050300;19;20413;-73
2023/07/25 06:58:55;;;;;;;4.60;1.50;;;;;;;17.14;59.92;100862.81;6052918;19;20006;-73
2023/07/25 07:01:03;;;;;;;3.40;1.70;;;;;;;16.89;59.70;100864.44;6053308;19;20042;-73
2023/07/25 07:03:12;;;;;;;3.05;1.65;;;;;;;16.95;59.71;100859.69;6058118;19;20311;-73
2023/07/25 07:05:19;;;;;;;4.72;1.58;;;;;;;17.17;58.84;100861.75;6046320;19;20335;-73
2023/07/25 07:07:35;;;;;;;4.95;1.70;;;;;;;17.65;58.33;100867.31;6063425;19;20018;-73
2023/07/25 07:09:44;;;;;;;2.95;1.42;;;;;;;17.34;58.53;100866.75;6054378;19;20306;-73
2023/07/25 07:11:49;;;;;;;2.97;1.65;;;;;;;17.98;58.68;100866.75;6052224;19;20522;-73
2023/07/25 07:13:54;;;;;;;3.67;1.40;;;;;;;18.65;56.25;100869.00;6058235;19;20355;-73
2023/07/25 07:16:00;;;;;;;3.22;1.58;;;;;;;19.03;55.54;100865.31;6058847;19;20303;-73
2023/07/25 07:18:11;;;;;;;4.72;1.45;;;;;;;19.14;55.46;100864.50;6053487;19;20505;-73
2023/07/25 07:20:17;;;;;;;5.25;1.67;;;;;;;18.23;56.67;100873.84;6058241;19;20039;-72
2023/07/25 07:22:23;;;;;;;2.58;1.70;;;;;;;17.82;57.81;100871.47;6058557;19;20502;-74
2023/07/25 07:24:26;;;;;;;3.47;1.58;;;;;;;18.10;57.71;100865.91;6053629;19;20324;-73
2023/07/25 07:26:32;;;;;;;4.72;1.90;;;;;;;18.05;58.87;100864.53;6058966;19;20010;-74
2023/07/25 07:28:41;;;;;;;6.45;1.90;;;;;;;18.64;56.97;100861.97;6057982;19;20248;-73
2023/07/25 07:30:51;;;;;;;4.65;1.67;;;;;;;17.39;59.97;100862.00;6069760;19;20027;-73
2023/07/25 07:32:58;;;;;;;5.22;1.70;;;;;;;17.19;61.00;100862.50;6055948;19;20018;-74
2023/07/25 07:35:07;;;;;;;4.78;1.55;;;;;;;17.13;60.52;100870.88;6063682;19;20010;-73
2023/07/25 07:37:13;;;;;;;4.15;1.50;;;;;;;16.94;61.54;100861.50;6057199;19;20487;-74
2023/07/25 07:39:18;;;;;;;4.72;1.40;;;;;;;16.95;60.37;100876.47;6059656;19;20011;-72
2023/07/25 07:41:26;;;;;;;1.90;1.38;;;;;;;16.73;61.87;100881.47;6054201;19;20285;-75
2023/07/25 07:43:31;;;;;;;2.65;1.30;;;;;;;17.75;59.99;100869.22;6058952;19;20354;-72
2023/07/25 07:45:37;;;;;;;3.70;1.42;;;;;;;18.34;57.00;100865.94;6058584;19;20055;-73
2023/07/25 07:47:39;;;;;;;4.28;1.40;;;;;;;18.62;55.61;100869.25;6054031;19;20007;-72
2023/07/25 07:49:44;;;;;;;1.67;1.50;;;;;;;19.19;55.71;100867.66;6062474;19;20007;-74
2023/07/25 07:51:52;;;;;;;3.80;1.63;;;;;;;19.92;52.32;100869.97;6058806;19;20023;-74
2023/07/25 07:54:20;;;;;;;3.10;1.48;;;;;;;18.47;54.86;100876.53;6057649;19;20014;-74
2023/07/25 07:56:28;;;;;;;3.58;1.55;;;;;;;18.01;56.98;100881.66;6058873;19;20526;-75
2023/07/25 07:58:37;;;;;;;2.20;1.45;;;;;;;17.94;56.77;100879.44;6061835;19;20658;-74
2023/07/25 08:00:43;;;;;;;2.58;1.38;;;;;;;17.29;57.59;100875.03;6068114;19;20590;-74
2023/07/25 08:02:49;;;;;;;5.68;1.63;;;;;;;17.14;58.63;100883.19;6076764;19;20400;-75
2023/07/25 08:04:58;;;;;;;1.48;1.27;;;;;;;16.80;58.41;100881.00;6058120;19;20013;-74
2023/07/25 08:07:06;;;;;;;4.15;1.38;;;;;;;16.71;58.84;100886.03;6059450;19;20188;-74
2023/07/25 08:09:12;;;;;;;1.70;1.60;;;;;;;17.10;58.42;100886.06;6054485;19;20018;-72
2023/07/25 08:11:14;;;;;;;6.38;1.55;;;;;;;17.70;56.71;100881.13;6059495;19;20019;-74
2023/07/25 08:13:20;;;;;;;2.08;1.42;;;;;;;18.08;54.93;100885.56;6064552;19;20027;-74
2023/07/25 08:15:25;;;;;;;7.03;1.75;;;;;;;18.76;54.46;100890.38;6049147;19;20014;-74
2023/07/25 08:17:28;;;;;;;2.08;1.17;;;;;;;19.21;52.96;100881.72;6057358;19;20654;-74
2023/07/25 08:19:33;;;;;;;5.22;1.75;;;;;;;18.41;54.91;100883.16;6059384;19;20152;-73
2023/07/25 08:21:39;;;;;;;6.15;1.50;;;;;;;17.43;56.73;100890.06;6035414;19;20019;-73
2023/07/25 08:23:47;;;;;;;2.92;1.73;;;;;;;17.17;57.32;100898.91;6057840;19;20468;-72
2023/07/25 08:25:53;;;;;;;2.67;1.35;;;;;;;17.11;57.71;100901.06;6058513;19;20646;-73
2023/07/25 08:27:58;;;;;;;3.22;1.17;;;;;;;17.12;58.16;100907.22;6066559;19;20254;-74
2023/07/25 08:30:04;;;;;;;3.90;1.52;;;;;;;17.45;57.07;100893.44;6070191;19;20403;-72
2023/07/25 08:32:13;;;;;;;2.80;1.35;;;;;;;18.49;55.17;100897.72;6059580;19;20348;-73
2023/07/25 08:34:19;;;;;;;1.98;1.13;;;;;;;18.91;53.61;100903.53;6070393;19;20310;-74
2023/07/25 08:36:25;;;;;;;3.53;1.40;;;;;;;19.81;52.63;100896.63;6067986;19;20006;-73
2023/07/25 08:38:31;;;;;;;2.05;1.40;;;;;;;19.93;50.39;100902.81;6051248;19;20390;-74
2023/07/25 08:40:40;;;;;;;4.30;1.40;;;;;;;19.39;51.81;100911.44;6066698;19;20748;-75
2023/07/25 08:42:51;;;;;;;1.92;0.98;;;;;;;18.24;53.47;100907.44;6066143;19;20014;-74
2023/07/25 08:44:58;;;;;;;4.95;1.30;;;;;;;18.03;54.49;100914.31;6064335;19;20077;-74
2023/07/25 08:47:19;;;;;;;2.72;1.50;;;;;;;17.85;54.94;100922.63;6064344;19;20011;-74
2023/07/25 08:49:28;;;;;;;4.00;1.38;;;;;;;18.71;53.25;100915.63;6068190;19;20300;-72
2023/07/25 08:51:37;;;;;;;5.85;1.63;;;;;;;19.29;51.09;100917.47;6070894;19;20841;-72
2023/07/25 08:53:50;;;;;;;5.38;1.50;;;;;;;20.38;49.27;100916.16;6058921;19;20017;-72
2023/07/25 08:55:58;;;;;;;0.85;0.85;;;;;;;20.25;47.88;100920.75;6067085;19;20501;-73
2023/07/25 08:58:04;;;;;;;1.75;0.88;;;;;;;20.37;48.36;100917.09;6065026;19;20010;-73
2023/07/25 09:00:11;;;;;;;1.95;1.25;;;;;;;19.53;50.77;100920.06;6054784;19;20014;-72
2023/07/25 09:02:18;;;;;;;1.98;1.00;;;;;;;18.70;51.66;100932.56;6060208;19;20232;-73
2023/07/25 09:04:24;;;;;;;1.10;1.10;;;;;;;18.43;54.33;100930.91;6058261;19;20554;-74
2023/07/25 09:06:30;;;;;;;3.63;1.48;;;;;;;18.12;54.79;100933.13;6059845;19;20058;-73
2023/07/25 09:08:36;;;;;;;3.42;1.20;;;;;;;18.07;54.46;100931.75;6064368;19;20018;-73
2023/07/25 09:10:41;;;;;;;2.15;1.23;;;;;;;17.81;54.61;100942.41;6057008;19;20434;-73
2023/07/25 09:12:50;;;;;;;2.97;1.02;;;;;;;17.42;56.24;100952.09;6053904;19;20285;-73
2023/07/25 09:14:57;;;;;;;1.83;1.13;;;;;;;17.28;57.14;100941.56;6065505;19;20009;-74
2023/07/25 09:17:03;;;;;;;3.47;1.10;;;;;;;17.36;57.36;100949.03;6055361;19;20352;-73
2023/07/25 09:19:09;;;;;;;3.03;1.20;;;;;;;18.02;56.25;100941.88;6031864;19;20543;-72
2023/07/25 09:21:14;;;;;;;1.63;1.10;;;;;;;18.91;53.44;100943.47;6059273;19;20363;-73
2023/07/25 09:23:23;;;;;;;4.50;1.27;;;;;;;19.33;50.36;100939.41;6057045;19;20019;-74
2023/07/25 09:25:29;;;;;;;1.90;1.00;;;;;;;20.30;48.61;100935.44;6064728;19;20372;-74
2023/07/25 09:27:34;;;;;;;2.70;1.15;;;;;;;19.84;48.75;100938.22;6067716;19;20011;-73
2023/07/25 09:29:42;;;;;;;5.07;1.50;;;;;;;19.19;50.27;100943.09;6059843;19;20613;-73
2023/07/25 09:31:50;;;;;;;1.92;0.98;;;;;;;18.70;51.92;100949.38;6062694;19;20531;-73
2023/07/25 09:33:56;;;;;;;1.73;1.10;;;;;;;18.74;51.44;100955.31;6060750;19;20363;-74
2023/07/25 09:36:02;;;;;;;1.60;0.90;;;;;;;18.29;51.80;100966.50;6062360;19;20155;-74
2023/07/25 09:38:08;;;;;;;4.72;1.30;;;;;;;18.02;53.06;100961.31;6056252;19;20007;-72
2023/07/25 09:40:14;;;;;;;4.32;1.20;;;;;;;18.47;52.34;100967.00;6071122;19;20007;-72
2023/07/25 09:42:20;;;;;;;4.82;1.20;;;;;;;19.37;49.43;100956.00;6055439;19;20014;-73
2023/07/25 09:44:26;;;;;;;4.80;1.70;;;;;;;19.83;47.83;100965.88;6066885;19;20162;-73
2023/07/25 09:46:34;;;;;;;3.47;0.93;;;;;;;20.29;45.83;100964.91;6061056;19;20429;-73
2023/07/25 09:48:46;;;;;;;1.58;1.00;;;;;;;20.56;46.06;100969.88;6051143;19;20013;-73